createdAt,value
2022-10-15T00:00:49.605Z,4.28
2022-10-15T00:03:16.929Z,3.95
2022-10-15T00:05:43.546Z,4.00
2022-10-15T00:08:11.806Z,3.90
2022-10-15T00:10:39.123Z,3.85
2022-10-15T00:13:06.386Z,4.45
2022-10-15T00:15:35.517Z,4.13
2022-10-15T00:18:02.118Z,4.25
2022-10-15T00:20:28.525Z,4.57
2022-10-15T00:22:55.036Z,4.25
2022-10-15T00:25:21.452Z,4.63
2022-10-15T00:27:47.864Z,4.57
2022-10-15T00:30:14.365Z,5.00
2022-10-15T00:32:40.764Z,5.18
2022-10-15T00:35:07.803Z,6.13
2022-10-15T00:37:34.261Z,6.55
2022-10-15T00:42:27.520Z,6.35
2022-10-15T00:44:56.968Z,6.55
2022-10-15T00:47:33.852Z,7.03
2022-10-15T00:50:04.975Z,7.00
2022-10-15T00:52:57.379Z,7.38
2022-10-15T00:55:29.617Z,7.55
2022-10-15T00:57:59.059Z,6.55
2022-10-15T01:00:25.566Z,7.75
2022-10-15T01:02:52.072Z,6.25
2022-10-15T01:05:19.113Z,7.80
2022-10-15T01:07:45.661Z,7.65
2022-10-15T01:10:13.593Z,7.00
2022-10-15T01:12:56.831Z,6.78
2022-10-15T01:15:29.370Z,6.85
2022-10-15T01:17:58.726Z,7.25
2022-10-15T01:21:12.258Z,7.55
2022-10-15T01:24:30.514Z,7.05
2022-10-15T01:27:05.439Z,6.57
2022-10-15T01:29:34.724Z,7.15
2022-10-15T01:32:17.462Z,6.80
2022-10-15T01:34:55.055Z,6.35
2022-10-15T01:37:36.678Z,7.22
2022-10-15T01:40:10.777Z,6.90
2022-10-15T01:42:47.224Z,7.20
2022-10-15T01:45:20.107Z,6.68
2022-10-15T01:47:51.561Z,6.47
2022-10-15T01:50:22.626Z,5.72
2022-10-15T01:52:51.694Z,6.00
2022-10-15T01:55:21.300Z,7.13
2022-10-15T01:57:49.122Z,6.10
2022-10-15T02:00:16.052Z,6.60
2022-10-15T02:02:42.976Z,5.45
2022-10-15T02:05:16.169Z,6.18
2022-10-15T02:07:58.794Z,5.97
2022-10-15T02:10:35.164Z,5.82
2022-10-15T02:13:13.099Z,5.07
2022-10-15T02:15:51.640Z,5.47
2022-10-15T02:18:30.292Z,5.32
2022-10-15T02:21:06.779Z,5.80
2022-10-15T02:23:36.527Z,6.32
2022-10-15T02:26:06.077Z,5.40
2022-10-15T02:28:35.297Z,5.38
2022-10-15T02:31:03.024Z,5.75
2022-10-15T02:33:31.959Z,5.20
2022-10-15T02:36:00.121Z,5.00
2022-10-15T02:38:29.959Z,4.90
2022-10-15T02:40:56.383Z,4.93
2022-10-15T02:43:22.970Z,5.40
2022-10-15T02:45:49.756Z,4.57
2022-10-15T02:48:16.904Z,4.00
2022-10-15T02:50:43.378Z,4.43
2022-10-15T02:53:10.940Z,4.00
2022-10-15T02:55:37.407Z,4.10
2022-10-15T02:58:04.777Z,4.15
2022-10-15T03:00:31.470Z,3.72
2022-10-15T03:02:57.990Z,4.07
2022-10-15T03:05:24.640Z,3.50
2022-10-15T03:07:51.118Z,3.45
2022-10-15T03:10:17.667Z,4.07
2022-10-15T03:12:44.254Z,3.78
2022-10-15T03:15:10.991Z,3.85
2022-10-15T03:17:37.419Z,3.65
2022-10-15T03:20:04.920Z,3.35
2022-10-15T03:22:31.305Z,3.67
2022-10-15T03:24:57.893Z,4.22
2022-10-15T03:27:25.353Z,3.50
2022-10-15T03:29:51.998Z,3.95
2022-10-15T03:32:18.427Z,3.88
2022-10-15T03:34:44.975Z,4.00
2022-10-15T03:37:11.636Z,4.30
2022-10-15T03:39:38.256Z,4.55
2022-10-15T03:42:04.775Z,4.60
2022-10-15T03:44:31.417Z,4.38
2022-10-15T03:46:57.784Z,4.75
2022-10-15T03:49:25.423Z,4.47
2022-10-15T03:51:51.884Z,4.68
2022-10-15T03:54:18.430Z,4.07
2022-10-15T03:56:44.806Z,4.47
2022-10-15T03:59:11.368Z,4.47
2022-10-15T04:01:38.052Z,3.95
2022-10-15T04:04:04.626Z,4.75
2022-10-15T04:06:34.117Z,4.13
2022-10-15T04:09:00.820Z,3.97
2022-10-15T04:11:27.322Z,4.95
2022-10-15T04:13:53.684Z,4.35
2022-10-15T04:16:20.150Z,4.03
2022-10-15T04:18:46.563Z,4.47
2022-10-15T04:21:13.160Z,4.13
2022-10-15T04:23:39.672Z,4.10
2022-10-15T04:26:06.420Z,3.90
2022-10-15T04:28:33.653Z,4.18
2022-10-15T04:31:01.284Z,4.25
2022-10-15T04:33:28.341Z,4.35
2022-10-15T04:36:06.247Z,4.13
2022-10-15T04:38:34.368Z,3.50
2022-10-15T04:41:10.027Z,4.22
2022-10-15T04:43:37.457Z,3.42
2022-10-15T04:46:05.595Z,3.60
2022-10-15T04:48:37.628Z,3.72
2022-10-15T04:51:09.786Z,3.60
2022-10-15T04:53:36.414Z,3.80
2022-10-15T04:56:10.511Z,3.42
2022-10-15T04:58:37.108Z,3.63
2022-10-15T05:01:06.105Z,4.70
2022-10-15T05:03:36.454Z,4.28
2022-10-15T05:06:18.281Z,4.10
2022-10-15T05:08:45.515Z,3.65
2022-10-15T05:11:14.793Z,3.90
2022-10-15T05:13:43.106Z,4.53
2022-10-15T05:16:20.985Z,4.82
2022-10-15T05:18:50.501Z,5.07
2022-10-15T05:21:18.297Z,4.07
2022-10-15T05:23:45.527Z,4.57
2022-10-15T05:26:14.273Z,5.03
2022-10-15T05:28:41.015Z,3.88
2022-10-15T05:31:11.835Z,3.72
2022-10-15T05:33:41.584Z,4.20
2022-10-15T05:36:18.700Z,3.97
2022-10-15T05:39:00.103Z,4.32
2022-10-15T05:41:27.985Z,4.40
2022-10-15T05:43:57.193Z,4.68
2022-10-15T05:46:24.269Z,4.88
2022-10-15T05:48:52.260Z,4.28
2022-10-15T05:51:18.925Z,5.03
2022-10-15T05:53:46.369Z,4.43
2022-10-15T05:56:14.191Z,4.00
2022-10-15T05:58:41.731Z,4.07
2022-10-15T06:01:11.301Z,3.42
2022-10-15T06:03:38.402Z,4.18
2022-10-15T06:06:05.591Z,4.13
2022-10-15T06:08:32.789Z,3.33
2022-10-15T06:11:09.273Z,3.78
2022-10-15T06:13:38.444Z,4.30
2022-10-15T06:16:05.256Z,4.13
2022-10-15T06:18:32.409Z,5.05
2022-10-15T06:20:59.178Z,3.92
2022-10-15T06:23:25.639Z,4.07
2022-10-15T06:25:52.379Z,4.10
2022-10-15T06:28:18.899Z,4.65
2022-10-15T06:30:45.340Z,4.60
2022-10-15T06:35:43.616Z,4.45
2022-10-15T06:38:10.174Z,3.67
2022-10-15T06:40:37.756Z,3.60
2022-10-15T06:43:09.650Z,3.90
2022-10-15T06:45:42.386Z,3.55
2022-10-15T06:48:09.056Z,3.75
2022-10-15T06:50:37.046Z,3.65
2022-10-15T06:53:04.181Z,3.90
2022-10-15T06:55:30.590Z,3.85
2022-10-15T06:57:57.454Z,4.10
2022-10-15T07:00:25.343Z,3.55
2022-10-15T07:02:52.743Z,4.18
2022-10-15T07:05:19.776Z,4.05
2022-10-15T07:07:56.487Z,3.55
2022-10-15T07:10:24.343Z,3.35
2022-10-15T07:12:51.029Z,3.92
2022-10-15T07:15:19.111Z,3.92
2022-10-15T07:18:01.162Z,3.50
2022-10-15T07:20:31.851Z,3.67
2022-10-15T07:23:00.459Z,2.95
2022-10-15T07:25:27.345Z,3.30
2022-10-15T07:27:55.249Z,3.13
2022-10-15T07:30:22.847Z,2.88
2022-10-15T07:32:50.278Z,3.13
2022-10-15T07:35:16.954Z,3.10
2022-10-15T07:37:43.630Z,2.88
2022-10-15T07:40:10.699Z,3.25
2022-10-15T07:42:37.342Z,3.28
2022-10-15T07:45:04.369Z,3.65
2022-10-15T07:47:30.996Z,3.63
2022-10-15T07:49:57.420Z,4.28
2022-10-15T07:52:24.264Z,4.45
2022-10-15T07:54:51.046Z,3.72
2022-10-15T07:57:17.944Z,4.60
2022-10-15T07:59:44.622Z,4.75
2022-10-15T08:02:18.779Z,4.22
2022-10-15T08:04:45.481Z,4.63
2022-10-15T08:07:12.237Z,4.05
2022-10-15T08:09:38.966Z,3.85
2022-10-15T08:12:06.887Z,3.78
2022-10-15T08:14:35.055Z,4.53
2022-10-15T08:17:03.340Z,4.60
2022-10-15T08:19:30.037Z,4.93
2022-10-15T08:21:57.780Z,4.25
2022-10-15T08:24:24.527Z,4.65
2022-10-15T08:26:52.073Z,4.47
2022-10-15T08:29:18.497Z,4.70
2022-10-15T08:31:45.008Z,4.30
2022-10-15T08:34:11.428Z,4.63
2022-10-15T08:36:37.920Z,4.53
2022-10-15T08:39:07.172Z,4.97
2022-10-15T08:41:54.589Z,4.00
2022-10-15T08:44:28.562Z,4.07
2022-10-15T08:47:12.518Z,3.75
2022-10-15T08:49:47.023Z,3.75
2022-10-15T08:52:38.538Z,2.97
2022-10-15T08:55:05.325Z,3.22
2022-10-15T08:58:03.750Z,3.35
2022-10-15T09:00:44.401Z,3.25
2022-10-15T09:03:29.677Z,3.35
2022-10-15T09:06:29.122Z,3.22
2022-10-15T09:09:01.570Z,2.53
2022-10-15T09:12:02.685Z,2.83
2022-10-15T09:14:33.608Z,2.50
2022-10-15T09:17:22.302Z,2.75
2022-10-15T09:19:53.327Z,2.40
2022-10-15T09:22:25.534Z,2.50
2022-10-15T09:24:52.809Z,1.90
2022-10-15T09:27:27.756Z,1.90
2022-10-15T09:30:06.353Z,1.90
2022-10-15T09:32:43.437Z,1.70
2022-10-15T09:35:22.416Z,1.48
2022-10-15T09:38:03.515Z,1.25
2022-10-15T09:43:41.488Z,1.30
2022-10-15T09:46:09.376Z,1.30
2022-10-15T09:48:48.486Z,1.23
2022-10-15T09:51:34.457Z,1.00
2022-10-15T09:54:26.677Z,1.17
2022-10-15T09:56:55.751Z,1.10
2022-10-15T09:59:23.799Z,1.23
2022-10-15T10:02:15.333Z,0.90
2022-10-15T10:04:42.034Z,0.90
2022-10-15T10:07:09.134Z,0.90
2022-10-15T10:09:56.606Z,0.90
2022-10-15T10:12:31.195Z,0.93
2022-10-15T10:15:00.426Z,0.82
2022-10-15T10:17:30.168Z,0.82
2022-10-15T10:20:19.772Z,0.68
2022-10-15T10:22:55.669Z,0.90
2022-10-15T10:25:42.619Z,1.05
2022-10-15T10:28:11.560Z,0.80
2022-10-15T10:30:43.930Z,1.10
2022-10-15T10:33:15.101Z,0.80
2022-10-15T10:35:50.140Z,1.00
2022-10-15T10:38:29.490Z,0.80
2022-10-15T10:41:00.438Z,0.88
2022-10-15T10:43:29.181Z,0.80
2022-10-15T10:46:26.992Z,0.80
2022-10-15T10:48:54.409Z,0.80
2022-10-15T10:51:24.027Z,0.82
2022-10-15T10:54:06.222Z,1.08
2022-10-15T10:56:35.587Z,0.88
2022-10-15T10:59:24.209Z,0.93
2022-10-15T11:01:51.929Z,0.80
2022-10-15T11:04:31.482Z,0.80
2022-10-15T11:07:05.072Z,0.68
2022-10-15T11:09:44.448Z,1.00
2022-10-15T11:12:48.692Z,0.95
2022-10-15T11:15:31.018Z,0.80
2022-10-15T11:18:12.592Z,0.60
2022-10-15T11:21:00.727Z,0.88
2022-10-15T11:23:55.569Z,0.70
2022-10-15T11:26:24.952Z,0.80
2022-10-15T11:29:16.503Z,0.70
2022-10-15T11:32:17.213Z,0.70
2022-10-15T11:35:20.120Z,0.70
2022-10-15T11:38:11.928Z,0.80
2022-10-15T11:41:04.071Z,0.70
2022-10-15T11:43:55.365Z,0.68
2022-10-15T11:46:33.481Z,0.70
2022-10-15T11:49:05.652Z,0.70
2022-10-15T11:51:48.784Z,0.60
2022-10-15T11:54:42.216Z,0.60
2022-10-15T11:57:12.951Z,0.70
2022-10-15T11:59:59.608Z,0.50
2022-10-15T12:02:37.418Z,0.60
2022-10-15T12:05:31.572Z,0.55
2022-10-15T12:07:58.471Z,0.70
2022-10-15T12:10:54.519Z,0.60
2022-10-15T12:13:40.450Z,0.47
2022-10-15T12:16:33.980Z,0.80
2022-10-15T12:19:08.066Z,0.60
2022-10-15T12:21:57.892Z,0.55
2022-10-15T12:24:39.807Z,0.50
2022-10-15T12:27:35.516Z,0.50
2022-10-15T12:30:01.980Z,0.50
2022-10-15T12:32:38.612Z,0.60
2022-10-15T12:35:17.945Z,0.57
2022-10-15T12:37:48.111Z,0.63
2022-10-15T12:40:27.071Z,0.40
2022-10-15T12:42:59.477Z,0.50
2022-10-15T12:45:40.453Z,0.47
2022-10-15T12:48:19.922Z,0.47
2022-10-15T12:50:46.689Z,0.50
2022-10-15T12:53:34.399Z,0.40
2022-10-15T12:56:16.123Z,0.50
2022-10-15T12:58:44.510Z,0.47
2022-10-15T13:01:13.912Z,0.60
2022-10-15T13:03:52.480Z,0.50
2022-10-15T13:06:22.146Z,0.50
2022-10-15T13:08:48.689Z,0.45
2022-10-15T13:11:23.907Z,0.50
2022-10-15T13:14:03.601Z,0.60
2022-10-15T13:16:30.985Z,0.40
2022-10-15T13:18:59.020Z,0.52
2022-10-15T13:21:57.380Z,1.02
2022-10-15T13:24:27.087Z,0.45
2022-10-15T13:26:55.626Z,0.40
2022-10-15T13:29:27.736Z,0.50
2022-10-15T13:31:57.608Z,0.50
2022-10-15T13:34:25.670Z,0.60
2022-10-15T13:36:54.056Z,0.50
2022-10-15T13:39:27.026Z,0.50
2022-10-15T13:42:05.729Z,0.60
2022-10-15T13:44:32.277Z,0.50
2022-10-15T13:46:58.850Z,0.45
2022-10-15T13:49:28.069Z,0.80
2022-10-15T13:51:56.080Z,0.60
2022-10-15T13:54:24.451Z,0.60
2022-10-15T13:56:55.950Z,0.60
2022-10-15T13:59:24.111Z,0.70
2022-10-15T14:02:04.402Z,0.85
2022-10-15T14:04:33.013Z,0.50
2022-10-15T14:07:18.699Z,0.50
2022-10-15T14:09:46.916Z,0.50
2022-10-15T14:12:14.701Z,0.50
2022-10-15T14:14:46.553Z,0.50
2022-10-15T14:17:25.259Z,0.52
2022-10-15T14:20:25.331Z,0.50
2022-10-15T14:22:49.256Z,0.50
2022-10-15T14:25:23.635Z,0.50
2022-10-15T14:27:50.798Z,0.60
2022-10-15T14:30:34.234Z,0.50
2022-10-15T14:33:00.844Z,0.57
2022-10-15T14:35:29.848Z,0.85
2022-10-15T14:38:02.386Z,0.50
2022-10-15T14:40:29.334Z,0.70
2022-10-15T14:42:55.689Z,0.60
2022-10-15T14:45:28.425Z,0.57
2022-10-15T14:47:58.473Z,0.68
2022-10-15T14:50:29.375Z,0.70
2022-10-15T14:52:57.751Z,0.90
2022-10-15T14:55:24.330Z,1.50
2022-10-15T14:57:52.347Z,1.60
2022-10-15T15:00:46.840Z,1.83
2022-10-15T15:03:17.898Z,1.00
2022-10-15T15:05:46.068Z,1.10
2022-10-15T15:08:12.816Z,0.82
2022-10-15T15:10:39.929Z,1.48
2022-10-15T15:13:06.435Z,1.17
2022-10-15T15:15:33.059Z,1.15
2022-10-15T15:17:59.528Z,2.05
2022-10-15T15:20:26.127Z,1.13
2022-10-15T15:22:54.501Z,0.80
2022-10-15T15:25:29.462Z,1.08
2022-10-15T15:30:25.384Z,1.05
2022-10-15T15:32:52.246Z,0.82
2022-10-15T15:35:26.455Z,0.73
2022-10-15T15:37:53.206Z,0.80
2022-10-15T15:40:20.110Z,1.90
2022-10-15T15:42:47.088Z,0.85
2022-10-15T15:45:22.376Z,0.80
2022-10-15T15:47:49.451Z,0.95
2022-10-15T15:50:17.111Z,3.20
2022-10-15T15:52:43.792Z,6.13
2022-10-15T15:55:11.010Z,6.40
2022-10-15T15:57:37.600Z,1.40
2022-10-15T16:00:06.856Z,2.05
2022-10-15T16:02:33.575Z,0.90
2022-10-15T16:05:01.913Z,0.90
2022-10-15T16:07:29.596Z,0.63
2022-10-15T16:09:56.222Z,0.88
2022-10-15T16:12:23.020Z,0.90
2022-10-15T16:14:49.674Z,0.80
2022-10-15T16:17:16.301Z,0.70
2022-10-15T16:19:42.995Z,0.60
2022-10-15T16:22:09.585Z,0.90
2022-10-15T16:24:36.232Z,0.90
2022-10-15T16:27:02.705Z,0.80
2022-10-15T16:29:29.291Z,0.98
2022-10-15T16:31:55.696Z,0.80
2022-10-15T16:34:22.192Z,0.95
2022-10-15T16:36:48.776Z,0.60
2022-10-15T16:39:15.388Z,0.90
2022-10-15T16:41:41.826Z,1.00
2022-10-15T16:44:08.529Z,0.80
2022-10-15T16:46:35.029Z,0.95
2022-10-15T16:49:01.974Z,0.90
2022-10-15T16:51:28.620Z,0.60
2022-10-15T16:53:55.295Z,0.60
2022-10-15T16:56:24.356Z,0.73
2022-10-15T16:58:51.318Z,0.90
2022-10-15T17:01:24.476Z,1.00
2022-10-15T17:03:51.273Z,1.02
2022-10-15T17:06:21.157Z,1.20
2022-10-15T17:08:53.804Z,1.08
2022-10-15T17:11:31.020Z,0.88
2022-10-15T17:14:00.498Z,1.00
2022-10-15T17:16:29.356Z,1.35
2022-10-15T17:18:56.717Z,1.20
2022-10-15T17:21:27.043Z,1.27
2022-10-15T17:23:55.497Z,1.27
2022-10-15T17:26:24.018Z,1.10
2022-10-15T17:28:51.658Z,1.10
2022-10-15T17:31:21.941Z,1.05
2022-10-15T17:33:49.605Z,1.00
2022-10-15T17:36:19.135Z,0.98
2022-10-15T17:38:46.266Z,1.30
2022-10-15T17:41:19.406Z,1.10
2022-10-15T17:43:48.320Z,1.10
2022-10-15T17:46:20.111Z,1.08
2022-10-15T17:48:46.949Z,1.10
2022-10-15T17:51:15.615Z,1.20
2022-10-15T17:53:43.295Z,3.83
2022-10-15T17:56:12.845Z,4.78
2022-10-15T17:58:39.959Z,3.50
2022-10-15T18:01:06.880Z,2.05
2022-10-15T18:03:33.500Z,1.48
2022-10-15T18:06:09.906Z,1.35
2022-10-15T18:08:36.723Z,1.40
2022-10-15T18:11:04.217Z,1.65
2022-10-15T18:13:30.800Z,1.52
2022-10-15T18:15:57.716Z,1.60
2022-10-15T18:18:25.372Z,1.50
2022-10-15T18:20:52.576Z,1.63
2022-10-15T18:23:19.892Z,1.42
2022-10-15T18:25:47.145Z,12.93
2022-10-15T18:28:14.024Z,11.43
2022-10-15T18:30:42.936Z,3.97
2022-10-15T18:33:11.910Z,6.18
2022-10-15T18:35:39.963Z,3.38
2022-10-15T18:38:07.220Z,2.50
2022-10-15T18:40:40.087Z,2.42
2022-10-15T18:43:07.518Z,2.05
2022-10-15T18:45:35.905Z,1.83
2022-10-15T18:48:02.749Z,1.60
2022-10-15T18:50:29.348Z,1.20
2022-10-15T18:52:55.829Z,1.48
2022-10-15T18:55:22.508Z,1.60
2022-10-15T18:57:49.431Z,1.35
2022-10-15T19:00:16.264Z,1.33
2022-10-15T19:02:42.758Z,1.38
2022-10-15T19:05:09.510Z,1.40
2022-10-15T19:07:36.057Z,1.33
2022-10-15T19:10:02.873Z,1.08
2022-10-15T19:12:29.352Z,1.27
2022-10-15T19:14:55.924Z,1.60
2022-10-15T19:17:22.624Z,1.65
2022-10-15T19:19:50.819Z,1.50
2022-10-15T19:22:18.397Z,1.48
2022-10-15T19:24:46.068Z,1.80
2022-10-15T19:27:12.608Z,1.92
2022-10-15T19:29:39.312Z,2.58
2022-10-15T19:32:06.433Z,2.38
2022-10-15T19:34:35.213Z,2.28
2022-10-15T19:37:02.049Z,2.30
2022-10-15T19:39:29.014Z,2.25
2022-10-15T19:41:55.781Z,2.20
2022-10-15T19:44:26.060Z,2.05
2022-10-15T19:46:52.933Z,2.20
2022-10-15T19:49:19.677Z,2.25
2022-10-15T19:51:51.479Z,2.03
2022-10-15T19:54:18.144Z,3.03
2022-10-15T19:56:44.994Z,4.07
2022-10-15T19:59:11.966Z,3.75
2022-10-15T20:01:38.684Z,4.97
2022-10-15T20:04:07.007Z,3.17
2022-10-15T20:06:36.145Z,3.72
2022-10-15T20:09:03.116Z,4.45
2022-10-15T20:11:30.034Z,4.43
2022-10-15T20:13:58.545Z,4.47
2022-10-15T20:16:26.387Z,5.32
2022-10-15T20:18:56.536Z,4.93
2022-10-15T20:21:23.297Z,4.63
2022-10-15T20:23:51.012Z,4.53
2022-10-15T20:26:17.555Z,4.10
2022-10-15T20:28:45.440Z,4.30
2022-10-15T20:31:18.764Z,4.78
2022-10-15T20:33:45.198Z,6.30
2022-10-15T20:36:19.884Z,6.13
2022-10-15T20:38:49.164Z,5.55
2022-10-15T20:41:16.931Z,4.75
2022-10-15T20:43:45.033Z,4.38
2022-10-15T20:46:21.519Z,4.53
2022-10-15T20:48:48.362Z,5.32
2022-10-15T20:51:17.412Z,5.40
2022-10-15T20:53:45.425Z,3.90
2022-10-15T20:56:11.987Z,4.20
2022-10-15T20:58:38.545Z,3.05
2022-10-15T21:01:07.523Z,2.88
2022-10-15T21:03:34.367Z,2.85
2022-10-15T21:06:00.876Z,2.90
2022-10-15T21:08:27.511Z,3.00
2022-10-15T21:11:00.762Z,3.00
2022-10-15T21:13:27.317Z,2.35
2022-10-15T21:15:59.137Z,2.50
2022-10-15T21:18:26.914Z,2.80
2022-10-15T21:20:55.133Z,2.30
2022-10-15T21:23:21.951Z,2.50
2022-10-15T21:25:48.491Z,2.70
2022-10-15T21:28:15.170Z,2.58
2022-10-15T21:30:41.711Z,2.88
2022-10-15T21:33:08.103Z,2.30
2022-10-15T21:35:34.684Z,2.55
2022-10-15T21:38:01.337Z,2.50
2022-10-15T21:40:27.839Z,2.58
2022-10-15T21:42:54.252Z,2.47
2022-10-15T21:45:20.678Z,2.00
2022-10-15T21:47:47.125Z,2.33
2022-10-15T21:50:13.532Z,2.15
2022-10-15T21:52:40.618Z,2.15
2022-10-15T21:55:07.607Z,2.60
2022-10-15T21:57:34.507Z,2.45
2022-10-15T22:00:01.186Z,2.33
2022-10-15T22:02:27.613Z,2.13
2022-10-15T22:04:54.249Z,2.75
2022-10-15T22:07:20.789Z,2.45
2022-10-15T22:09:48.025Z,2.50
2022-10-15T22:12:15.630Z,2.80
2022-10-15T22:14:44.361Z,2.33
2022-10-15T22:17:10.780Z,2.53
2022-10-15T22:19:37.382Z,2.60
2022-10-15T22:22:03.778Z,2.75
2022-10-15T22:24:30.823Z,2.45
2022-10-15T22:26:57.248Z,2.60
2022-10-15T22:29:33.039Z,2.60
2022-10-15T22:32:01.329Z,2.58
2022-10-15T22:34:27.840Z,2.83
2022-10-15T22:36:54.199Z,2.67
2022-10-15T22:39:20.752Z,2.80
2022-10-15T22:41:48.364Z,2.63
2022-10-15T22:44:19.869Z,2.97
2022-10-15T22:46:49.070Z,2.60
2022-10-15T22:49:21.310Z,2.70
2022-10-15T22:51:51.363Z,3.53
2022-10-15T22:54:20.127Z,2.50
2022-10-15T22:56:47.134Z,2.42
2022-10-15T22:59:14.926Z,2.38
2022-10-15T23:01:41.697Z,2.30
2022-10-15T23:04:11.817Z,2.33
2022-10-15T23:06:38.271Z,2.45
2022-10-15T23:09:07.028Z,2.50
2022-10-15T23:11:39.078Z,1.95
2022-10-15T23:14:14.434Z,1.92
2022-10-15T23:16:43.324Z,2.08
2022-10-15T23:19:16.575Z,1.90
2022-10-15T23:21:51.648Z,2.00
2022-10-15T23:24:20.462Z,2.10
2022-10-15T23:26:48.898Z,2.10
2022-10-15T23:29:21.079Z,1.80
2022-10-15T23:31:49.105Z,2.17
2022-10-15T23:34:22.356Z,2.03
2022-10-15T23:36:49.873Z,2.40
2022-10-15T23:39:18.914Z,2.10
2022-10-15T23:41:45.731Z,1.80
2022-10-15T23:44:12.606Z,2.15
2022-10-15T23:46:39.557Z,1.77
2022-10-15T23:49:06.080Z,1.83
2022-10-15T23:51:34.640Z,1.83
2022-10-15T23:54:02.542Z,2.20
2022-10-15T23:56:30.070Z,1.88
2022-10-15T23:59:01.341Z,1.45
